Aviation Digital Data Service (ADDS)

Output produced by TAFs form (2127 UTC 20 April 2014)
found at http://www.aviationweather.gov/adds/tafs/
 
KPOU 201735Z 2018/2118 14005KT P6SM SCT250 
     FM210100 VRB03KT P6SM BKN200 
     FM211500 18005KT P6SM SCT200